createdAt,value
2024-03-08T00:01:29.236Z,99.90
2024-03-08T00:03:59.486Z,99.90
2024-03-08T00:06:29.728Z,99.90
2024-03-08T00:09:00.244Z,99.90
2024-03-08T00:11:30.647Z,99.90
2024-03-08T00:14:03.515Z,99.90
2024-03-08T00:16:33.666Z,99.90
2024-03-08T00:19:03.878Z,99.90
2024-03-08T00:26:35.107Z,99.90
2024-03-08T00:29:09.101Z,99.90
2024-03-08T00:31:39.310Z,99.90
2024-03-08T00:34:12.969Z,99.90
2024-03-08T00:36:43.168Z,99.90
2024-03-08T00:39:13.505Z,99.90
2024-03-08T00:41:45.984Z,99.90
2024-03-08T00:44:18.827Z,99.90
2024-03-08T00:46:51.036Z,99.90
2024-03-08T00:49:23.051Z,99.90
2024-03-08T00:51:53.185Z,99.90
2024-03-08T00:59:26.946Z,99.90
2024-03-08T01:01:57.878Z,99.90
2024-03-08T01:04:30.365Z,99.90
2024-03-08T01:07:00.879Z,99.90
2024-03-08T01:09:31.645Z,99.90
2024-03-08T01:12:02.703Z,99.90
2024-03-08T01:14:35.592Z,99.90
2024-03-08T01:17:05.770Z,99.90
2024-03-08T01:29:42.059Z,99.90
2024-03-08T01:32:13.337Z,99.90
2024-03-08T01:34:43.479Z,99.90
2024-03-08T01:42:18.910Z,99.90
2024-03-08T01:44:52.806Z,99.90
2024-03-08T01:47:24.304Z,99.90
2024-03-08T01:49:54.649Z,99.90
2024-03-08T01:52:26.723Z,99.90
2024-03-08T01:54:57.377Z,99.90
2024-03-08T01:57:27.519Z,99.90
2024-03-08T02:00:00.446Z,99.90
2024-03-08T02:02:32.599Z,99.90
2024-03-08T02:05:04.459Z,99.90
2024-03-08T02:07:34.510Z,99.90
2024-03-08T02:10:04.709Z,99.90
2024-03-08T02:15:08.448Z,99.90
2024-03-08T02:20:11.680Z,99.90
2024-03-08T02:22:44.585Z,99.90
2024-03-08T02:25:15.604Z,99.90
2024-03-08T02:27:45.759Z,99.90
2024-03-08T02:30:18.793Z,99.90
2024-03-08T02:32:49.192Z,99.90
2024-03-08T02:35:19.872Z,99.90
2024-03-08T02:37:52.562Z,99.90
2024-03-08T02:40:23.343Z,99.90
2024-03-08T02:42:53.888Z,99.90
2024-03-08T02:45:24.136Z,99.90
2024-03-08T02:47:54.387Z,99.90
2024-03-08T02:50:24.459Z,99.90
2024-03-08T02:52:57.579Z,99.90
2024-03-08T02:55:27.780Z,99.90
2024-03-08T02:57:58.346Z,99.90
2024-03-08T03:00:28.514Z,99.90
2024-03-08T03:02:58.845Z,99.90
2024-03-08T03:05:29.100Z,99.90
2024-03-08T03:08:02.143Z,99.90
2024-03-08T03:10:32.585Z,99.90
2024-03-08T03:15:33.134Z,99.90
2024-03-08T03:18:03.414Z,99.90
2024-03-08T03:20:42.164Z,99.90
2024-03-08T03:23:21.983Z,99.90
2024-03-08T03:25:53.629Z,99.90
2024-03-08T03:28:25.288Z,99.90
2024-03-08T03:30:55.492Z,99.90
2024-03-08T03:33:25.777Z,99.90
2024-03-08T03:35:56.261Z,99.90
2024-03-08T03:38:29.406Z,99.90
2024-03-08T03:41:05.621Z,99.90
2024-03-08T03:53:41.493Z,99.90
2024-03-08T03:58:42.261Z,99.90
2024-03-08T04:01:13.968Z,99.90
2024-03-08T04:03:46.352Z,99.90
2024-03-08T04:06:16.483Z,99.90
2024-03-08T04:08:49.250Z,99.90
2024-03-08T04:11:19.912Z,99.90
2024-03-08T04:13:50.052Z,99.90
2024-03-08T04:16:20.320Z,99.90
2024-03-08T04:18:50.713Z,99.90
2024-03-08T04:21:21.310Z,99.90
2024-03-08T04:23:54.049Z,99.90
2024-03-08T04:26:24.181Z,99.90
2024-03-08T04:38:58.957Z,99.90
2024-03-08T04:54:06.213Z,99.90
2024-03-08T05:09:17.443Z,99.90
2024-03-08T05:11:48.813Z,99.90
2024-03-08T05:19:24.640Z,99.90
2024-03-08T05:21:54.791Z,99.90
2024-03-08T05:24:27.445Z,99.90
2024-03-08T05:39:34.607Z,99.90
2024-03-08T05:54:42.379Z,99.90
2024-03-08T06:09:49.379Z,99.90
2024-03-08T06:24:55.507Z,99.90
2024-03-08T06:40:02.127Z,99.90
2024-03-08T06:52:38.032Z,99.90
2024-03-08T06:55:13.455Z,99.90
2024-03-08T06:57:44.344Z,99.90
2024-03-08T07:00:20.206Z,99.90
2024-03-08T07:10:25.785Z,99.90
2024-03-08T07:23:00.137Z,99.90
2024-03-08T07:25:33.163Z,99.90
2024-03-08T07:33:17.085Z,99.90
2024-03-08T07:40:55.160Z,99.90
2024-03-08T07:56:01.587Z,99.90
2024-03-08T08:11:10.553Z,99.90
2024-03-08T08:13:40.938Z,99.90
2024-03-08T08:26:15.837Z,99.90
2024-03-08T08:36:20.786Z,99.90
2024-03-08T08:41:24.886Z,99.90
2024-03-08T08:46:42.118Z,99.90
2024-03-08T08:56:51.297Z,99.90
2024-03-08T09:11:59.841Z,99.90
2024-03-08T09:27:05.734Z,99.90
2024-03-08T09:42:16.360Z,99.90
2024-03-08T09:44:49.525Z,99.90
2024-03-08T09:47:21.935Z,99.90
2024-03-08T09:52:23.050Z,99.90
2024-03-08T09:54:53.250Z,99.90
2024-03-08T09:57:26.007Z,99.90
2024-03-08T10:10:00.688Z,99.90
2024-03-08T10:12:33.507Z,99.90
2024-03-08T10:15:03.640Z,99.90
2024-03-08T10:20:06.245Z,99.80
2024-03-08T10:25:08.253Z,99.90
2024-03-08T10:27:42.271Z,99.20
2024-03-08T10:30:21.116Z,99.50
2024-03-08T10:32:53.005Z,98.80
2024-03-08T10:35:24.037Z,98.90
2024-03-08T10:37:59.971Z,97.70
2024-03-08T10:40:31.123Z,97.40
2024-03-08T10:43:05.514Z,97.50
2024-03-08T10:45:39.550Z,97.90
2024-03-08T10:48:35.917Z,98.00
2024-03-08T10:51:09.550Z,96.90
2024-03-08T10:53:42.839Z,97.20
2024-03-08T10:56:15.804Z,95.40
2024-03-08T10:58:50.756Z,96.70
2024-03-08T11:01:21.059Z,95.00
2024-03-08T11:03:55.005Z,94.70
2024-03-08T11:06:33.700Z,94.30
2024-03-08T11:11:36.271Z,92.50
2024-03-08T11:14:09.162Z,92.90
2024-03-08T11:16:48.144Z,93.30
2024-03-08T11:19:30.324Z,90.80
2024-03-08T11:22:09.102Z,90.60
2024-03-08T11:24:46.536Z,91.50
2024-03-08T11:27:17.124Z,88.80
2024-03-08T11:30:02.930Z,89.20
2024-03-08T11:32:34.184Z,90.40
2024-03-08T11:35:06.843Z,90.50
2024-03-08T11:37:38.788Z,86.50
2024-03-08T11:40:18.248Z,86.60
2024-03-08T11:42:53.000Z,86.80
2024-03-08T11:45:26.317Z,87.90
2024-03-08T11:47:58.797Z,87.30
2024-03-08T11:50:29.223Z,87.00
2024-03-08T11:53:05.729Z,88.30
2024-03-08T11:58:09.332Z,87.10
2024-03-08T12:00:42.696Z,87.40
2024-03-08T12:03:13.538Z,88.20
2024-03-08T12:08:14.401Z,84.60
2024-03-08T12:10:44.907Z,85.50
2024-03-08T12:13:15.864Z,88.80
2024-03-08T12:15:48.904Z,86.40
2024-03-08T12:18:19.233Z,86.20
2024-03-08T12:23:21.596Z,83.90
2024-03-08T12:28:23.717Z,83.30
2024-03-08T12:30:59.978Z,85.80
2024-03-08T12:33:30.793Z,83.60
2024-03-08T12:36:01.626Z,84.60
2024-03-08T12:38:33.113Z,81.80
2024-03-08T12:41:04.298Z,82.50
2024-03-08T12:43:35.480Z,84.40
2024-03-08T12:46:10.097Z,84.50
2024-03-08T12:48:42.036Z,85.60
2024-03-08T12:51:12.440Z,80.40
2024-03-08T12:53:45.379Z,80.10
2024-03-08T12:56:15.724Z,82.30
2024-03-08T12:58:45.954Z,81.30
2024-03-08T13:01:18.941Z,81.30
2024-03-08T13:03:50.895Z,78.30
2024-03-08T13:06:22.973Z,81.50
2024-03-08T13:08:54.758Z,80.00
2024-03-08T13:11:25.622Z,78.20
2024-03-08T13:16:31.078Z,75.40
2024-03-08T13:26:35.174Z,72.30
2024-03-08T13:31:41.080Z,72.20
2024-03-08T13:39:22.213Z,71.10
2024-03-08T13:41:52.489Z,71.00
2024-03-08T13:44:22.556Z,70.40
2024-03-08T13:46:59.482Z,70.50
2024-03-08T13:49:30.589Z,69.30
2024-03-08T13:57:04.942Z,71.30
2024-03-08T13:59:36.480Z,70.80
2024-03-08T14:02:14.670Z,72.00
2024-03-08T14:04:45.592Z,71.90
2024-03-08T14:12:19.199Z,72.80
2024-03-08T14:17:24.710Z,71.10
2024-03-08T14:19:55.964Z,73.50
2024-03-08T14:24:58.103Z,70.20
2024-03-08T14:32:34.429Z,72.10
2024-03-08T14:37:35.177Z,72.30
2024-03-08T14:40:06.564Z,72.50
2024-03-08T14:42:36.741Z,72.50
2024-03-08T14:45:08.466Z,73.00
2024-03-08T14:47:41.210Z,70.90
2024-03-08T14:50:13.920Z,71.90
2024-03-08T15:00:28.233Z,75.60
2024-03-08T15:03:01.185Z,76.00
2024-03-08T15:08:11.951Z,76.80
2024-03-08T15:10:46.157Z,76.90
2024-03-08T15:15:59.196Z,76.60
2024-03-08T15:18:36.208Z,76.40
2024-03-08T15:21:09.018Z,76.40
2024-03-08T15:26:14.833Z,80.00
2024-03-08T15:33:53.077Z,81.00
2024-03-08T15:46:31.671Z,85.30
2024-03-08T15:49:04.414Z,85.60
2024-03-08T15:54:09.162Z,86.80
2024-03-08T16:04:13.985Z,90.00
2024-03-08T16:19:24.372Z,91.70
2024-03-08T16:34:29.832Z,91.70
2024-03-08T16:47:05.332Z,91.60
2024-03-08T16:49:38.236Z,93.00
2024-03-08T16:52:08.980Z,93.20
2024-03-08T16:57:22.151Z,93.70
2024-03-08T17:04:56.530Z,93.70
2024-03-08T17:12:29.888Z,95.40
2024-03-08T17:20:07.993Z,94.90
2024-03-08T17:25:10.179Z,95.50
2024-03-08T17:30:20.979Z,96.00
2024-03-08T17:35:33.286Z,96.60
2024-03-08T17:40:41.848Z,96.90
2024-03-08T17:43:14.973Z,97.30
2024-03-08T17:45:47.626Z,97.20
2024-03-08T17:50:55.606Z,97.80
2024-03-08T18:06:05.939Z,98.90
2024-03-08T18:13:39.957Z,99.30
2024-03-08T18:16:12.831Z,99.50
2024-03-08T18:18:42.970Z,99.70
2024-03-08T18:21:15.688Z,99.80
2024-03-08T18:33:55.744Z,99.90
2024-03-08T18:36:31.602Z,99.90
2024-03-08T18:51:44.550Z,99.90
2024-03-08T19:06:57.786Z,99.90
2024-03-08T19:09:28.166Z,99.90
2024-03-08T19:22:03.390Z,99.90
2024-03-08T19:32:12.521Z,99.90
2024-03-08T19:37:15.823Z,99.90
2024-03-08T19:39:45.902Z,99.90
2024-03-08T19:52:24.083Z,99.90
2024-03-08T19:59:59.796Z,99.90
2024-03-08T20:07:36.035Z,99.90
2024-03-08T20:15:13.904Z,99.90
2024-03-08T20:17:47.103Z,99.90
2024-03-08T20:20:20.803Z,99.90
2024-03-08T20:22:54.544Z,99.90
2024-03-08T20:25:27.937Z,99.90
2024-03-08T20:28:01.657Z,99.90
2024-03-08T20:30:32.398Z,99.90
2024-03-08T20:33:04.467Z,99.90
2024-03-08T20:35:37.377Z,99.90
2024-03-08T20:38:11.359Z,99.90
2024-03-08T20:50:54.946Z,99.90
2024-03-08T20:53:29.170Z,99.90
2024-03-08T21:08:35.939Z,99.90
2024-03-08T21:16:10.618Z,99.90
2024-03-08T21:23:45.443Z,99.90
2024-03-08T21:38:50.861Z,99.90
2024-03-08T21:53:56.130Z,99.90
2024-03-08T22:09:08.132Z,99.90
2024-03-08T22:24:15.223Z,99.90
2024-03-08T22:34:17.226Z,99.90
2024-03-08T22:36:47.401Z,99.90
2024-03-08T22:39:20.108Z,99.90
2024-03-08T22:41:50.591Z,99.90
2024-03-08T22:44:20.739Z,99.90
2024-03-08T22:46:51.903Z,99.90
2024-03-08T22:49:22.322Z,99.90
2024-03-08T22:51:52.445Z,99.90
2024-03-08T22:54:26.425Z,99.90
2024-03-08T22:56:58.089Z,99.90
2024-03-08T22:59:29.241Z,99.90
2024-03-08T23:01:59.484Z,99.90
2024-03-08T23:04:29.625Z,99.90
2024-03-08T23:06:59.820Z,99.90
2024-03-08T23:09:34.445Z,99.90
2024-03-08T23:12:06.500Z,99.90
2024-03-08T23:14:36.684Z,99.90
2024-03-08T23:17:08.258Z,99.90
2024-03-08T23:19:39.373Z,99.90
2024-03-08T23:22:13.360Z,99.90
2024-03-08T23:24:46.054Z,99.90
2024-03-08T23:27:16.181Z,99.90
2024-03-08T23:29:46.294Z,99.90
2024-03-08T23:32:17.448Z,99.90
2024-03-08T23:34:47.633Z,99.90
2024-03-08T23:37:17.833Z,99.90
2024-03-08T23:39:50.822Z,99.90
2024-03-08T23:42:22.382Z,99.90
2024-03-08T23:44:52.722Z,99.90
2024-03-08T23:47:23.244Z,99.90
2024-03-08T23:49:55.354Z,99.90
2024-03-08T23:52:26.027Z,99.90
2024-03-08T23:54:59.895Z,99.90
2024-03-08T23:57:30.879Z,99.90
